Holmes, New York
Current Conditions -  °F | °C
As of 11:53 AM on Wednesday 26 Nov 2014 (Local Time) from KDXR Reporting Station
Light Snow Light Snow  
Wind Chill: 33°   Ceiling: 800
Heat Index: 33°   Visibility: 0.75mi
Dew Point: 30°   Wind: 0mph
Humidity: 89%   Direction: NA
Pressure: 30.05"   Gusts: NA
Location:  41.52°N, 73.65°W
Report Text: KDXR 261653Z 00000KT 3/4SM -SN BR VV008 01/M01 A3005 RMK AO2 SLP179 P0011 T00061011
Loading
Personal Weather Stations






























Interactive Weather Map New forecast layout! Learn more

10-Day Weather Forecast

Advertisements
Track Severe Weather on mobile